createdAt,value
2018-06-20T00:01:08.192Z,10.87
2018-06-20T00:03:40.977Z,16.50
2018-06-20T00:06:13.453Z,13.40
2018-06-20T00:08:48.177Z,14.73
2018-06-20T00:11:22.223Z,26.03
2018-06-20T00:13:55.828Z,15.50
2018-06-20T00:16:28.269Z,23.83
2018-06-20T00:19:00.797Z,15.17
2018-06-20T00:21:33.203Z,13.53
2018-06-20T00:24:05.607Z,17.23
2018-06-20T00:26:38.948Z,15.80
2018-06-20T00:29:13.470Z,23.13
2018-06-20T00:31:46.011Z,28.33
2018-06-20T00:37:39.636Z,23.27
2018-06-20T00:40:12.929Z,21.30
2018-06-20T00:42:49.701Z,26.53
2018-06-20T00:45:24.597Z,23.10
2018-06-20T00:47:57.035Z,19.93
2018-06-20T00:50:29.489Z,25.70
2018-06-20T00:53:01.708Z,29.87
2018-06-20T00:55:43.456Z,31.43
2018-06-20T00:58:15.830Z,38.50
2018-06-20T01:00:48.269Z,33.67
2018-06-20T01:03:20.873Z,47.93
2018-06-20T01:05:54.096Z,54.07
2018-06-20T01:08:27.234Z,52.47
2018-06-20T01:11:00.231Z,47.23
2018-06-20T01:13:32.414Z,36.60
2018-06-20T01:16:04.868Z,62.97
2018-06-20T01:18:37.339Z,46.00
2018-06-20T01:21:15.055Z,46.20
2018-06-20T01:23:51.490Z,49.50
2018-06-20T01:26:27.261Z,58.00
2018-06-20T01:29:02.749Z,46.70
2018-06-20T01:31:42.870Z,42.57
2018-06-20T01:34:26.251Z,40.17
2018-06-20T01:36:57.133Z,35.90
2018-06-20T01:39:29.616Z,38.80
2018-06-20T01:42:01.862Z,36.70
2018-06-20T01:44:34.095Z,54.30
2018-06-20T01:47:06.316Z,36.40
2018-06-20T01:49:38.712Z,31.43
2018-06-20T01:52:11.218Z,32.67
2018-06-20T01:54:43.525Z,41.53
2018-06-20T01:57:15.704Z,40.20
2018-06-20T01:59:48.625Z,37.70
2018-06-20T02:02:20.849Z,68.30
2018-06-20T02:04:53.081Z,42.40
2018-06-20T02:07:25.196Z,34.63
2018-06-20T02:09:58.487Z,34.70
2018-06-20T02:12:30.847Z,31.30
2018-06-20T02:15:14.536Z,34.80
2018-06-20T02:17:46.847Z,41.77
2018-06-20T02:20:22.848Z,37.70
2018-06-20T02:22:58.002Z,30.30
2018-06-20T02:25:39.699Z,47.63
2018-06-20T02:28:23.194Z,81.53
2018-06-20T02:30:55.509Z,34.63
2018-06-20T02:33:40.279Z,68.40
2018-06-20T02:36:20.198Z,33.27
2018-06-20T02:38:54.869Z,33.57
2018-06-20T02:41:29.420Z,43.20
2018-06-20T02:44:03.270Z,35.27
2018-06-20T02:46:36.051Z,108.40
2018-06-20T02:49:08.357Z,36.20
2018-06-20T02:51:41.113Z,92.93
2018-06-20T02:54:14.237Z,36.27
2018-06-20T02:56:46.497Z,38.17
2018-06-20T02:59:18.585Z,46.00
2018-06-20T03:01:50.917Z,33.23
2018-06-20T03:04:23.375Z,30.70
2018-06-20T03:06:56.029Z,30.37
2018-06-20T03:09:32.079Z,42.97
2018-06-20T03:12:04.420Z,38.90
2018-06-20T03:14:36.639Z,38.10
2018-06-20T03:20:30.089Z,31.57
2018-06-20T03:23:02.461Z,38.13
2018-06-20T03:25:44.590Z,33.77
2018-06-20T03:28:22.567Z,38.17
2018-06-20T03:30:58.474Z,45.67
2018-06-20T03:33:44.401Z,31.43
2018-06-20T03:36:27.711Z,29.30
2018-06-20T03:39:03.872Z,31.80
2018-06-20T03:41:39.582Z,39.50
2018-06-20T03:44:13.875Z,39.17
2018-06-20T03:46:50.224Z,39.17
2018-06-20T03:49:46.516Z,40.73
2018-06-20T03:52:18.904Z,43.07
2018-06-20T03:54:51.759Z,39.23
2018-06-20T03:57:23.804Z,45.27
2018-06-20T03:59:58.973Z,40.50
2018-06-20T04:02:33.676Z,38.07
2018-06-20T04:05:05.835Z,35.33
2018-06-20T04:07:38.035Z,32.23
2018-06-20T04:10:10.224Z,33.00
2018-06-20T04:12:43.478Z,64.93
2018-06-20T04:15:15.745Z,35.27
2018-06-20T04:17:47.833Z,53.93
2018-06-20T04:20:20.333Z,45.60
2018-06-20T04:22:53.299Z,35.03
2018-06-20T04:25:25.518Z,114.37
2018-06-20T04:27:57.648Z,27.40
2018-06-20T04:30:29.903Z,32.73
2018-06-20T04:33:02.014Z,37.10
2018-06-20T04:35:34.216Z,24.83
2018-06-20T04:38:06.541Z,27.23
2018-06-20T04:40:39.012Z,35.97
2018-06-20T04:43:11.124Z,30.90
2018-06-20T04:45:43.662Z,65.90
2018-06-20T04:48:17.458Z,30.63
2018-06-20T04:50:50.614Z,97.30
2018-06-20T04:53:22.712Z,35.13
2018-06-20T04:55:54.877Z,37.37
2018-06-20T04:58:27.100Z,155.50
2018-06-20T05:00:59.433Z,36.17
2018-06-20T05:03:33.313Z,39.23
2018-06-20T05:06:05.522Z,34.63
2018-06-20T05:08:37.749Z,34.93
2018-06-20T05:11:17.200Z,43.43
2018-06-20T05:13:49.287Z,39.93
2018-06-20T05:16:21.438Z,40.77
2018-06-20T05:18:53.614Z,41.63
2018-06-20T05:21:26.865Z,41.27
2018-06-20T05:23:59.785Z,43.47
2018-06-20T05:26:32.041Z,42.13
2018-06-20T05:29:04.197Z,109.57
2018-06-20T05:31:36.294Z,43.47
2018-06-20T05:34:08.533Z,53.47
2018-06-20T05:36:40.732Z,45.57
2018-06-20T05:39:13.664Z,41.73
2018-06-20T05:41:45.867Z,46.20
2018-06-20T05:44:18.085Z,42.87
2018-06-20T05:46:50.205Z,47.80
2018-06-20T05:49:22.408Z,40.70
2018-06-20T05:51:54.513Z,39.60
2018-06-20T05:54:26.664Z,46.33
2018-06-20T05:56:58.817Z,41.93
2018-06-20T05:59:31.087Z,40.53
2018-06-20T06:02:03.245Z,40.90
2018-06-20T06:04:35.488Z,39.07
2018-06-20T06:07:07.695Z,46.33
2018-06-20T06:09:39.940Z,41.33
2018-06-20T06:12:12.041Z,41.13
2018-06-20T06:14:44.174Z,46.93
2018-06-20T06:17:16.296Z,45.73
2018-06-20T06:19:48.463Z,40.97
2018-06-20T06:22:20.966Z,49.33
2018-06-20T06:24:53.160Z,54.17
2018-06-20T06:27:25.680Z,50.73
2018-06-20T06:29:57.840Z,47.13
2018-06-20T06:32:30.068Z,51.53
2018-06-20T06:41:54.646Z,54.87
2018-06-20T06:44:27.119Z,48.10
2018-06-20T06:46:59.550Z,46.57
2018-06-20T06:49:31.966Z,53.63
2018-06-20T06:52:05.781Z,54.43
2018-06-20T06:54:38.166Z,56.17
2018-06-20T06:57:10.634Z,49.67
2018-06-20T06:59:43.155Z,52.47
2018-06-20T07:02:15.134Z,51.20
2018-06-20T07:04:47.556Z,48.67
2018-06-20T07:07:46.053Z,50.47
2018-06-20T07:10:18.240Z,38.70
2018-06-20T07:12:50.497Z,40.70
2018-06-20T07:15:22.694Z,44.80
2018-06-20T07:17:54.957Z,48.43
2018-06-20T07:21:04.088Z,49.20
2018-06-20T07:23:36.723Z,62.23
2018-06-20T07:26:09.007Z,66.23
2018-06-20T07:28:41.379Z,67.33
2018-06-20T07:31:13.780Z,58.00
2018-06-20T07:33:44.820Z,55.90
2018-06-20T07:36:17.293Z,57.00
2018-06-20T07:38:49.631Z,57.83
2018-06-20T07:41:21.937Z,51.87
2018-06-20T07:43:54.382Z,55.77
2018-06-20T07:46:26.844Z,54.60
2018-06-20T07:49:27.606Z,58.27
2018-06-20T07:51:59.854Z,60.17
2018-06-20T07:54:32.392Z,66.67
2018-06-20T07:57:04.662Z,70.40
2018-06-20T07:59:41.372Z,76.57
2018-06-20T08:02:27.597Z,69.20
2018-06-20T08:05:04.324Z,77.00
2018-06-20T08:07:40.965Z,70.20
2018-06-20T08:10:17.705Z,71.07
2018-06-20T08:12:54.385Z,77.07
2018-06-20T08:15:31.029Z,72.47
2018-06-20T08:18:07.565Z,70.50
2018-06-20T08:24:00.707Z,84.43
2018-06-20T08:26:32.846Z,102.80
2018-06-20T08:29:05.169Z,131.53
2018-06-20T08:31:37.521Z,134.10
2018-06-20T08:34:09.794Z,132.87
2018-06-20T08:36:42.387Z,126.63
2018-06-20T08:39:14.736Z,140.63
2018-06-20T08:44:54.066Z,149.80
2018-06-20T08:47:26.709Z,150.80
2018-06-20T08:49:59.176Z,139.20
2018-06-20T08:52:31.600Z,147.17
2018-06-20T08:55:04.291Z,124.23
2018-06-20T08:57:36.822Z,111.07
2018-06-20T09:00:09.633Z,110.13
2018-06-20T09:02:42.049Z,93.10
2018-06-20T09:05:18.956Z,86.67
2018-06-20T09:08:28.302Z,76.33
2018-06-20T09:11:04.891Z,73.13
2018-06-20T09:14:13.438Z,70.77
2018-06-20T09:16:50.107Z,60.03
2018-06-20T09:19:26.747Z,52.23
2018-06-20T09:21:59.351Z,45.77
2018-06-20T09:24:31.928Z,50.00
2018-06-20T09:27:04.338Z,50.07
2018-06-20T09:29:36.803Z,53.10
2018-06-20T09:32:09.379Z,70.73
2018-06-20T09:34:41.864Z,67.03
2018-06-20T09:37:14.320Z,71.67
2018-06-20T09:39:46.739Z,73.30
2018-06-20T09:42:19.288Z,89.60
2018-06-20T09:44:51.719Z,98.60
2018-06-20T09:47:24.131Z,105.53
2018-06-20T09:49:56.940Z,116.53
2018-06-20T09:52:29.330Z,107.87
2018-06-20T09:55:01.783Z,106.07
2018-06-20T09:57:34.228Z,101.27
2018-06-20T10:00:11.520Z,100.97
2018-06-20T10:02:47.288Z,91.40
2018-06-20T10:05:24.198Z,86.13
2018-06-20T10:08:01.010Z,66.90
2018-06-20T10:10:37.708Z,53.33
2018-06-20T10:13:13.516Z,61.70
2018-06-20T10:15:46.209Z,54.83
2018-06-20T10:18:18.699Z,54.23
2018-06-20T10:20:51.015Z,58.70
2018-06-20T10:23:23.633Z,55.13
2018-06-20T10:25:55.890Z,52.27
2018-06-20T10:28:28.621Z,45.60
2018-06-20T10:31:01.045Z,44.63
2018-06-20T10:33:33.661Z,42.73
2018-06-20T10:36:06.071Z,37.63
2018-06-20T10:38:38.633Z,40.17
2018-06-20T10:41:10.905Z,24.67
2018-06-20T10:43:43.419Z,25.87
2018-06-20T10:46:20.342Z,19.07
2018-06-20T10:48:52.693Z,18.97
2018-06-20T10:51:25.103Z,17.47
2018-06-20T10:54:01.534Z,20.07
2018-06-20T10:56:38.420Z,16.77
2018-06-20T10:59:15.307Z,17.77
2018-06-20T11:01:50.915Z,24.97
2018-06-20T11:04:27.731Z,19.83
2018-06-20T11:07:03.309Z,21.77
2018-06-20T11:09:40.178Z,21.57
2018-06-20T11:12:16.949Z,23.77
2018-06-20T11:14:49.524Z,15.83
2018-06-20T11:17:22.028Z,20.53
2018-06-20T11:19:54.376Z,19.57
2018-06-20T11:22:26.697Z,16.90
2018-06-20T11:24:59.256Z,16.27
2018-06-20T11:27:31.796Z,20.53
2018-06-20T11:30:04.175Z,20.33
2018-06-20T11:32:36.650Z,15.63
2018-06-20T11:35:09.187Z,21.37
2018-06-20T11:37:41.656Z,20.67
2018-06-20T11:40:14.865Z,16.13
2018-06-20T11:42:47.446Z,16.90
2018-06-20T11:45:19.850Z,14.73
2018-06-20T11:47:52.208Z,22.93
2018-06-20T11:50:24.648Z,16.50
2018-06-20T11:53:06.398Z,22.60
2018-06-20T11:55:40.202Z,30.50
2018-06-20T11:58:17.037Z,20.00
2018-06-20T12:00:53.892Z,17.70
2018-06-20T12:03:30.795Z,17.63
2018-06-20T12:06:07.314Z,17.93
2018-06-20T12:08:44.761Z,21.80
2018-06-20T12:11:21.862Z,20.57
2018-06-20T12:13:58.780Z,21.87
2018-06-20T12:16:33.123Z,26.40
2018-06-20T12:19:09.924Z,20.07
2018-06-20T12:21:46.588Z,17.63
2018-06-20T12:24:23.512Z,17.87
2018-06-20T12:27:00.321Z,19.60
2018-06-20T12:29:37.153Z,14.77
2018-06-20T12:32:13.691Z,14.47
2018-06-20T12:34:50.312Z,18.00
2018-06-20T12:37:27.168Z,18.00
2018-06-20T12:40:03.250Z,22.17
2018-06-20T12:42:39.891Z,15.33
2018-06-20T12:45:15.488Z,16.60
2018-06-20T12:47:52.288Z,18.20
2018-06-20T12:50:29.492Z,16.77
2018-06-20T12:53:02.432Z,17.70
2018-06-20T12:55:34.865Z,24.63
2018-06-20T12:58:07.403Z,27.33
2018-06-20T13:00:47.372Z,22.23
2018-06-20T13:03:19.792Z,22.47
2018-06-20T13:05:52.409Z,17.33
2018-06-20T13:08:25.138Z,19.10
2018-06-20T13:10:57.566Z,17.00
2018-06-20T13:13:29.997Z,20.17
2018-06-20T13:16:02.325Z,17.70
2018-06-20T13:18:35.838Z,16.83
2018-06-20T13:21:08.313Z,21.53
2018-06-20T13:23:39.439Z,20.80
2018-06-20T13:26:11.830Z,22.50
2018-06-20T13:28:45.695Z,25.70
2018-06-20T13:31:22.681Z,16.93
2018-06-20T13:34:00.137Z,20.20
2018-06-20T13:36:37.052Z,12.40
2018-06-20T13:39:16.082Z,22.53
2018-06-20T13:41:52.941Z,13.87
2018-06-20T13:44:27.740Z,19.07
2018-06-20T13:47:04.704Z,14.80
2018-06-20T13:49:37.621Z,21.20
2018-06-20T13:52:10.069Z,22.17
2018-06-20T13:54:42.893Z,15.07
2018-06-20T13:57:15.383Z,18.03
2018-06-20T13:59:47.922Z,12.73
2018-06-20T14:02:20.300Z,23.00
2018-06-20T14:04:52.780Z,17.30
2018-06-20T14:07:25.173Z,16.53
2018-06-20T14:09:57.465Z,21.83
2018-06-20T14:12:30.205Z,20.50
2018-06-20T14:15:02.579Z,14.30
2018-06-20T14:17:37.494Z,15.37
2018-06-20T14:23:30.388Z,20.47
2018-06-20T14:26:02.963Z,16.83
2018-06-20T14:28:37.244Z,18.03
2018-06-20T14:31:28.360Z,22.97
2018-06-20T14:34:16.940Z,20.17
2018-06-20T14:37:05.724Z,35.90
2018-06-20T14:43:08.945Z,25.57
2018-06-20T14:45:50.628Z,24.40
2018-06-20T14:48:23.512Z,31.57
2018-06-20T14:51:05.228Z,26.97
2018-06-20T14:53:42.825Z,23.20
2018-06-20T14:56:19.498Z,21.70
2018-06-20T14:59:28.295Z,19.40
2018-06-20T15:02:00.868Z,19.63
2018-06-20T15:04:33.557Z,19.27
2018-06-20T15:07:12.409Z,22.13
2018-06-20T15:09:45.043Z,22.37
2018-06-20T15:12:17.536Z,20.87
2018-06-20T15:14:49.924Z,15.37
2018-06-20T15:17:29.575Z,20.47
2018-06-20T15:20:02.899Z,15.27
2018-06-20T15:22:39.781Z,17.90
2018-06-20T15:25:12.806Z,18.97
2018-06-20T15:27:49.683Z,20.83
2018-06-20T15:30:54.954Z,20.97
2018-06-20T15:33:31.985Z,19.45
2018-06-20T15:38:18.539Z,16.80
2018-06-20T15:40:51.919Z,25.48
2018-06-20T15:43:25.391Z,17.00
2018-06-20T15:46:05.137Z,17.40
2018-06-20T15:48:40.265Z,19.07
2018-06-20T15:51:14.962Z,18.70
2018-06-20T15:53:47.737Z,19.75
2018-06-20T15:56:20.550Z,17.05
2018-06-20T15:58:53.341Z,21.50
2018-06-20T16:01:26.145Z,11.88
2018-06-20T16:07:39.991Z,21.97
2018-06-20T16:10:17.148Z,14.20
2018-06-20T16:12:49.879Z,18.40
2018-06-20T16:15:22.100Z,18.35
2018-06-20T16:17:54.517Z,19.70
2018-06-20T16:20:31.931Z,14.75
2018-06-20T16:23:09.885Z,16.23
2018-06-20T16:25:47.033Z,19.17
2018-06-20T16:28:25.758Z,17.35
2018-06-20T16:30:58.329Z,21.33
2018-06-20T16:33:30.724Z,15.43
2018-06-20T16:36:02.900Z,19.05
2018-06-20T16:41:56.135Z,19.25
2018-06-20T16:44:28.442Z,17.32
2018-06-20T16:47:02.899Z,15.72
2018-06-20T16:49:43.957Z,26.40
2018-06-20T16:52:23.383Z,13.18
2018-06-20T16:55:01.537Z,27.22
2018-06-20T16:57:36.816Z,21.70
2018-06-20T17:00:11.576Z,19.40
2018-06-20T17:02:51.897Z,24.83
2018-06-20T17:05:29.034Z,22.77
2018-06-20T17:08:02.560Z,21.73
2018-06-20T17:10:35.245Z,16.42
2018-06-20T17:16:36.809Z,18.02
2018-06-20T17:19:20.030Z,16.93
2018-06-20T17:21:57.286Z,17.20
2018-06-20T17:24:43.365Z,16.15
2018-06-20T17:27:33.070Z,15.32
2018-06-20T17:30:06.158Z,17.57
2018-06-20T17:32:39.432Z,12.70
2018-06-20T17:35:12.035Z,21.27
2018-06-20T17:37:45.779Z,25.30
2018-06-20T17:40:18.857Z,21.65
2018-06-20T17:42:52.622Z,15.28
2018-06-20T17:45:26.798Z,16.37
2018-06-20T17:47:59.615Z,17.35
2018-06-20T17:50:32.261Z,22.87
2018-06-20T17:53:04.772Z,16.87
2018-06-20T17:55:37.544Z,16.05
2018-06-20T17:58:11.441Z,15.30
2018-06-20T18:00:52.221Z,12.35
2018-06-20T18:03:28.558Z,15.90
2018-06-20T18:06:07.639Z,12.68
2018-06-20T18:08:46.136Z,17.30
2018-06-20T18:13:26.893Z,20.68
2018-06-20T18:16:03.712Z,19.07
2018-06-20T18:18:36.224Z,116.20
2018-06-20T18:21:09.017Z,22.20
2018-06-20T18:23:42.132Z,23.27
2018-06-20T18:26:16.570Z,14.65
2018-06-20T18:28:50.267Z,11.25
2018-06-20T18:31:22.790Z,16.27
2018-06-20T18:33:55.986Z,14.50
2018-06-20T18:36:29.281Z,11.75
2018-06-20T18:39:03.432Z,19.07
2018-06-20T18:41:35.831Z,14.58
2018-06-20T18:44:09.942Z,14.75
2018-06-20T18:46:42.829Z,19.75
2018-06-20T18:49:17.105Z,11.20
2018-06-20T18:51:48.520Z,21.33
2018-06-20T18:54:22.270Z,19.95
2018-06-20T18:56:55.611Z,15.63
2018-06-20T18:59:33.214Z,17.65
2018-06-20T19:02:10.415Z,12.90
2018-06-20T19:04:47.384Z,15.88
2018-06-20T19:07:24.317Z,14.23
2018-06-20T19:10:28.006Z,10.53
2018-06-20T19:13:04.912Z,13.08
2018-06-20T19:15:48.893Z,12.50
2018-06-20T19:18:22.703Z,13.15
2018-06-20T19:20:55.553Z,23.38
2018-06-20T19:23:29.352Z,22.98
2018-06-20T19:26:05.672Z,17.12
2018-06-20T19:28:40.482Z,20.17
2018-06-20T19:31:14.513Z,27.65
2018-06-20T19:33:47.924Z,12.78
2018-06-20T19:36:20.588Z,16.93
2018-06-20T19:42:14.177Z,15.48
2018-06-20T19:44:49.677Z,18.60
2018-06-20T19:47:23.142Z,16.20
2018-06-20T19:49:55.576Z,14.75
2018-06-20T19:52:27.946Z,24.25
2018-06-20T19:55:00.408Z,19.70
2018-06-20T19:57:33.118Z,14.80
2018-06-20T20:00:05.888Z,14.80
2018-06-20T20:02:45.144Z,17.55
2018-06-20T20:05:21.737Z,23.00
2018-06-20T20:08:04.754Z,16.30
2018-06-20T20:10:54.162Z,17.00
2018-06-20T20:13:55.431Z,21.80
2018-06-20T20:16:49.092Z,27.52
2018-06-20T20:23:07.073Z,23.20
2018-06-20T20:26:08.293Z,20.90
2018-06-20T20:28:47.647Z,16.77
2018-06-20T20:31:37.284Z,28.40
2018-06-20T20:34:19.224Z,10.45
2018-06-20T20:37:06.728Z,16.00
2018-06-20T20:39:43.750Z,14.00
2018-06-20T20:42:28.056Z,16.50
2018-06-20T20:48:26.626Z,22.00
2018-06-20T20:51:15.629Z,14.68
2018-06-20T20:54:00.694Z,11.80
2018-06-20T20:56:42.184Z,11.20
2018-06-20T20:59:40.221Z,12.43
2018-06-20T21:02:18.114Z,25.97
2018-06-20T21:04:57.151Z,16.67
2018-06-20T21:07:38.042Z,17.12
2018-06-20T21:10:12.666Z,18.40
2018-06-20T21:12:46.968Z,18.35
2018-06-20T21:15:20.220Z,18.93
2018-06-20T21:17:53.171Z,19.90
2018-06-20T21:20:25.796Z,27.60
2018-06-20T21:23:02.960Z,34.97
2018-06-20T21:25:36.136Z,38.07
2018-06-20T21:28:12.815Z,20.40
2018-06-20T21:30:45.724Z,21.40
2018-06-20T21:33:19.279Z,22.07
2018-06-20T21:35:56.819Z,23.03
2018-06-20T21:38:29.623Z,26.87
2018-06-20T21:43:50.320Z,24.03
2018-06-20T21:46:22.985Z,21.20
2018-06-20T21:48:56.784Z,18.97
2018-06-20T21:51:29.328Z,28.70
2018-06-20T21:54:04.858Z,28.57
2018-06-20T21:56:37.858Z,27.77
2018-06-20T21:59:10.956Z,21.80
2018-06-20T22:01:44.508Z,24.97
2018-06-20T22:04:20.509Z,22.63
2018-06-20T22:07:08.439Z,20.53
2018-06-20T22:09:53.413Z,23.40
2018-06-20T22:13:25.964Z,22.80
2018-06-20T22:15:58.918Z,21.43
2018-06-20T22:18:38.572Z,20.23
2018-06-20T22:21:16.588Z,24.13
2018-06-20T22:23:49.416Z,17.40
2018-06-20T22:26:23.450Z,18.37
2018-06-20T22:32:18.745Z,21.10
2018-06-20T22:34:52.779Z,14.87
2018-06-20T22:37:27.447Z,17.30
2018-06-20T22:40:07.542Z,31.00
2018-06-20T22:42:41.533Z,18.87
2018-06-20T22:45:14.271Z,32.07
2018-06-20T22:47:47.183Z,12.13
2018-06-20T22:50:20.871Z,16.47
2018-06-20T22:52:53.515Z,20.80
2018-06-20T22:58:56.997Z,15.70
2018-06-20T23:01:30.273Z,15.97
2018-06-20T23:04:02.711Z,14.07
2018-06-20T23:06:35.554Z,15.97
2018-06-20T23:09:10.846Z,11.20
2018-06-20T23:11:47.538Z,12.03
2018-06-20T23:14:19.856Z,17.30
2018-06-20T23:16:53.758Z,11.13
2018-06-20T23:19:27.849Z,17.50
2018-06-20T23:22:02.087Z,16.70
2018-06-20T23:24:34.626Z,17.43
2018-06-20T23:27:07.099Z,15.50
2018-06-20T23:29:39.529Z,11.23
2018-06-20T23:32:11.843Z,14.37
2018-06-20T23:34:44.127Z,11.77
2018-06-20T23:37:16.314Z,10.00
2018-06-20T23:39:48.481Z,16.07
2018-06-20T23:42:20.619Z,13.73
2018-06-20T23:44:53.196Z,17.77
2018-06-20T23:47:25.665Z,11.47
2018-06-20T23:49:57.873Z,20.20
2018-06-20T23:55:50.556Z,18.03
2018-06-20T23:58:22.771Z,16.57
